Time;durP1;ratioP1;P1;durP2;ratioP2;P2;SDS_P1;SDS_P2;PMS_P1;PMS_P2;Temp;Humidity;BMP_temperature;BMP_pressure;BME280_temperature;BME280_humidity;BME280_pressure;Samples;Min_cycle;Max_cycle;Signal;HPM_P1;HPM_P2
2021/12/20 00:00:49;;;;;;;1.54;0.88;;;;;;;;;;361349;148;866598;-56
2021/12/20 00:01:51;;;;;;;1.41;1.06;;;;;;;;;;361594;147;864807;-56
2021/12/20 00:02:54;;;;;;;1.89;1.34;;;;;;;;;;359955;147;857433;-56
2021/12/20 00:03:55;;;;;;;2.39;1.16;;;;;;;;;;362251;148;862285;-56
2021/12/20 00:04:57;;;;;;;2.54;1.54;;;;;;;;;;360687;147;857098;-56
2021/12/20 00:05:59;;;;;;;3.46;1.31;;;;;;;;;;361666;147;865015;-56
2021/12/20 00:07:00;;;;;;;7.01;1.26;;;;;;;;;;362392;147;857494;-57
2021/12/20 00:08:02;;;;;;;5.59;2.75;;;;;;;;;;362987;148;864685;-58
2021/12/20 00:09:03;;;;;;;4.44;2.27;;;;;;;;;;361535;147;858668;-56
2021/12/20 00:10:06;;;;;;;6.47;3.62;;;;;;;;;;358640;147;857154;-56
2021/12/20 00:11:08;;;;;;;5.28;2.86;;;;;;;;;;360731;148;864809;-57
2021/12/20 00:12:09;;;;;;;3.49;1.64;;;;;;;;;;362857;146;859440;-56
2021/12/20 00:13:11;;;;;;;2.13;1.16;;;;;;;;;;361118;147;864662;-57
2021/12/20 00:14:12;;;;;;;1.31;1.04;;;;;;;;;;354870;147;866705;-56
2021/12/20 00:15:14;;;;;;;1.99;1.12;;;;;;;;;;354688;152;859046;-57
2021/12/20 00:16:16;;;;;;;3.52;1.29;;;;;;;;;;360122;147;866551;-56
2021/12/20 00:17:17;;;;;;;3.54;1.10;;;;;;;;;;360555;148;866043;-56
2021/12/20 00:18:19;;;;;;;1.29;0.90;;;;;;;;;;360377;148;858536;-58
2021/12/20 00:19:23;;;;;;;2.75;1.11;;;;;;;;;;363526;147;859465;-56
2021/12/20 00:20:25;;;;;;;2.49;1.48;;;;;;;;;;360317;147;864845;-56
2021/12/20 00:21:27;;;;;;;2.35;1.24;;;;;;;;;;363139;145;864507;-57
2021/12/20 00:22:28;;;;;;;1.84;1.23;;;;;;;;;;359864;148;865655;-58
2021/12/20 00:23:30;;;;;;;1.90;1.21;;;;;;;;;;360953;147;858954;-56
2021/12/20 00:24:32;;;;;;;4.41;1.41;;;;;;;;;;361288;147;860735;-54
2021/12/20 00:25:33;;;;;;;4.81;2.14;;;;;;;;;;357566;148;866063;-55
2021/12/20 00:26:35;;;;;;;3.79;2.04;;;;;;;;;;361445;147;866572;-56
2021/12/20 00:27:36;;;;;;;3.77;1.24;;;;;;;;;;359951;147;859724;-56
2021/12/20 00:28:38;;;;;;;3.05;1.79;;;;;;;;;;360666;148;864646;-56
2021/12/20 00:29:40;;;;;;;2.23;1.27;;;;;;;;;;359959;147;857401;-58
2021/12/20 00:30:41;;;;;;;2.38;1.31;;;;;;;;;;361733;148;857351;-58
2021/12/20 00:31:43;;;;;;;8.36;3.59;;;;;;;;;;363074;147;864959;-58
2021/12/20 00:32:44;;;;;;;5.95;3.02;;;;;;;;;;363047;147;857793;-58
2021/12/20 00:33:46;;;;;;;8.73;4.19;;;;;;;;;;361738;147;856397;-56
2021/12/20 00:34:48;;;;;;;1.78;1.24;;;;;;;;;;359068;148;866151;-56
2021/12/20 00:35:49;;;;;;;2.67;1.54;;;;;;;;;;348426;151;856469;-58
2021/12/20 00:37:00;;;;;;;1.88;1.31;;;;;;;;;;348355;151;857031;-55
2021/12/20 00:40:37;;;;;;;2.27;1.71;;;;;;;;;;349521;153;865199;-56
2021/12/20 00:41:38;;;;;;;1.91;1.41;;;;;;;;;;350056;151;857733;-56
2021/12/20 00:42:40;;;;;;;1.72;1.09;;;;;;;;;;348668;153;858026;-56
2021/12/20 00:43:42;;;;;;;4.16;2.16;;;;;;;;;;348369;151;865032;-56
2021/12/20 00:44:43;;;;;;;3.57;2.40;;;;;;;;;;353559;148;857887;-55
2021/12/20 00:45:45;;;;;;;4.14;2.29;;;;;;;;;;352387;151;863188;-58
2021/12/20 00:46:46;;;;;;;1.84;1.34;;;;;;;;;;352439;151;857382;-56
2021/12/20 00:47:48;;;;;;;3.49;1.94;;;;;;;;;;349824;151;867060;-56
2021/12/20 00:48:49;;;;;;;4.91;2.81;;;;;;;;;;350098;151;856907;-58
2021/12/20 00:49:51;;;;;;;3.94;2.46;;;;;;;;;;349364;154;857186;-56
2021/12/20 00:50:53;;;;;;;2.68;1.70;;;;;;;;;;351398;151;859595;-56
2021/12/20 00:51:54;;;;;;;2.89;1.51;;;;;;;;;;350031;151;865463;-56
2021/12/20 00:52:56;;;;;;;4.34;1.67;;;;;;;;;;349237;152;866201;-56
2021/12/20 00:53:57;;;;;;;3.94;2.24;;;;;;;;;;348489;152;857103;-56
2021/12/20 00:54:59;;;;;;;2.46;1.69;;;;;;;;;;351398;151;860520;-56
2021/12/20 00:56:00;;;;;;;1.89;1.34;;;;;;;;;;342156;154;864942;-56
2021/12/20 00:57:03;;;;;;;4.65;1.80;;;;;;;;;;343788;155;857349;-56
2021/12/20 00:58:04;;;;;;;4.55;2.30;;;;;;;;;;344692;154;866832;-56
2021/12/20 00:59:07;;;;;;;2.72;1.30;;;;;;;;;;343745;154;858676;-56
2021/12/20 01:00:10;;;;;;;1.92;1.06;;;;;;;;;;344427;155;857792;-57
2021/12/20 01:01:14;;;;;;;3.20;1.53;;;;;;;;;;344218;154;857908;-57
2021/12/20 01:02:15;;;;;;;4.59;2.44;;;;;;;;;;343747;154;866287;-56
2021/12/20 01:03:17;;;;;;;5.81;1.37;;;;;;;;;;342526;155;857268;-56
2021/12/20 01:04:19;;;;;;;2.29;1.30;;;;;;;;;;342438;155;857261;-56
2021/12/20 01:05:21;;;;;;;7.86;2.82;;;;;;;;;;345003;154;857716;-56
2021/12/20 01:06:23;;;;;;;2.66;1.57;;;;;;;;;;343237;154;859078;-56
2021/12/20 01:07:25;;;;;;;2.28;1.18;;;;;;;;;;342292;155;857164;-56
2021/12/20 01:08:30;;;;;;;4.55;1.74;;;;;;;;;;344884;155;864855;-56
2021/12/20 01:09:30;;;;;;;2.62;1.51;;;;;;;;;;343841;154;857315;-56
2021/12/20 01:10:32;;;;;;;3.51;1.49;;;;;;;;;;346184;155;857790;-56
2021/12/20 01:11:38;;;;;;;2.39;1.31;;;;;;;;;;343046;154;864723;-56
2021/12/20 01:12:47;;;;;;;3.21;1.92;;;;;;;;;;343746;154;858235;-56
2021/12/20 01:13:47;;;;;;;3.63;1.97;;;;;;;;;;342270;155;864795;-56
2021/12/20 01:14:57;;;;;;;4.10;1.84;;;;;;;;;;345735;155;858774;-56
2021/12/20 01:15:54;;;;;;;5.39;2.72;;;;;;;;;;345580;154;863971;-56
2021/12/20 01:17:02;;;;;;;4.49;2.25;;;;;;;;;;344408;154;857340;-56
2021/12/20 01:17:59;;;;;;;2.91;1.66;;;;;;;;;;345299;155;864732;-57
2021/12/20 01:19:01;;;;;;;3.60;1.64;;;;;;;;;;344297;154;859581;-57
2021/12/20 01:20:04;;;;;;;2.43;1.42;;;;;;;;;;344565;154;864870;-56
2021/12/20 01:21:06;;;;;;;5.36;2.31;;;;;;;;;;342742;155;857366;-56
2021/12/20 01:22:07;;;;;;;3.26;1.47;;;;;;;;;;340642;154;857862;-57
2021/12/20 01:23:09;;;;;;;2.40;1.11;;;;;;;;;;344820;155;864652;-56
2021/12/20 01:24:11;;;;;;;2.17;1.37;;;;;;;;;;342757;154;858079;-56
2021/12/20 01:25:13;;;;;;;6.50;2.76;;;;;;;;;;346298;155;858546;-56
2021/12/20 01:26:15;;;;;;;3.47;1.25;;;;;;;;;;346109;154;864731;-57
2021/12/20 01:27:16;;;;;;;1.52;1.16;;;;;;;;;;344403;154;857557;-56
2021/12/20 01:28:18;;;;;;;2.26;1.22;;;;;;;;;;345928;155;859209;-57
2021/12/20 01:29:19;;;;;;;3.84;1.33;;;;;;;;;;345951;155;866018;-56
2021/12/20 01:30:22;;;;;;;1.91;1.07;;;;;;;;;;344967;153;864639;-56
2021/12/20 01:31:24;;;;;;;4.00;1.69;;;;;;;;;;343926;155;857781;-56
2021/12/20 01:32:25;;;;;;;4.26;1.86;;;;;;;;;;341869;155;858776;-56
2021/12/20 01:33:27;;;;;;;4.44;1.74;;;;;;;;;;343448;154;864732;-56
2021/12/20 01:34:28;;;;;;;6.94;1.89;;;;;;;;;;343478;154;857465;-55
2021/12/20 01:35:30;;;;;;;4.74;2.18;;;;;;;;;;343475;155;857243;-56
2021/12/20 01:36:32;;;;;;;3.41;1.51;;;;;;;;;;342349;154;857865;-59
2021/12/20 01:37:33;;;;;;;3.11;1.78;;;;;;;;;;343957;155;866353;-56
2021/12/20 01:38:35;;;;;;;4.02;1.59;;;;;;;;;;341628;154;864811;-55
2021/12/20 01:39:36;;;;;;;3.86;1.74;;;;;;;;;;344251;153;857606;-56
2021/12/20 01:40:38;;;;;;;2.07;1.20;;;;;;;;;;343026;154;857424;-57
2021/12/20 01:41:40;;;;;;;2.43;1.42;;;;;;;;;;341820;154;867249;-58
2021/12/20 01:42:42;;;;;;;3.95;1.71;;;;;;;;;;342858;155;859043;-56
2021/12/20 01:43:44;;;;;;;1.64;1.11;;;;;;;;;;342431;154;857749;-56
2021/12/20 01:44:46;;;;;;;3.06;1.53;;;;;;;;;;344267;154;865894;-56
2021/12/20 01:45:49;;;;;;;1.97;1.28;;;;;;;;;;345238;155;859050;-56
2021/12/20 01:46:51;;;;;;;1.60;1.26;;;;;;;;;;343768;155;857297;-55
2021/12/20 01:48:03;;;;;;;1.51;1.01;;;;;;;;;;342502;154;857199;-55
2021/12/20 01:48:58;;;;;;;2.02;1.09;;;;;;;;;;340818;155;857261;-57
2021/12/20 01:50:06;;;;;;;2.74;1.07;;;;;;;;;;344958;155;856732;-58
2021/12/20 01:52:14;;;;;;;2.16;1.11;;;;;;;;;;349057;151;857724;-57
2021/12/20 01:53:11;;;;;;;1.85;1.16;;;;;;;;;;348120;153;859035;-57
2021/12/20 01:54:12;;;;;;;1.97;1.15;;;;;;;;;;348470;151;857242;-57
2021/12/20 01:55:15;;;;;;;1.79;1.32;;;;;;;;;;351447;152;857540;-57
2021/12/20 01:56:18;;;;;;;2.64;1.10;;;;;;;;;;345802;153;866643;-56
2021/12/20 01:57:21;;;;;;;3.66;1.49;;;;;;;;;;351222;152;857837;-56
2021/12/20 01:58:23;;;;;;;3.38;1.10;;;;;;;;;;351270;151;864432;-56
2021/12/20 01:59:25;;;;;;;1.85;1.12;;;;;;;;;;350259;152;858789;-56
2021/12/20 02:00:27;;;;;;;1.42;1.03;;;;;;;;;;348428;151;857264;-56
2021/12/20 02:01:29;;;;;;;3.59;1.13;;;;;;;;;;349918;152;858193;-55
2021/12/20 02:02:31;;;;;;;0.92;0.87;;;;;;;;;;350833;152;858545;-56
2021/12/20 02:03:33;;;;;;;0.96;0.81;;;;;;;;;;351684;152;858446;-57
2021/12/20 02:04:45;;;;;;;3.09;1.10;;;;;;;;;;350308;151;862730;-56
2021/12/20 02:06:44;;;;;;;2.73;1.24;;;;;;;;;;351336;151;857857;-57
2021/12/20 02:07:53;;;;;;;1.29;0.86;;;;;;;;;;349088;152;865701;-56
2021/12/20 02:08:54;;;;;;;2.07;0.89;;;;;;;;;;347926;151;857246;-56
2021/12/20 02:09:56;;;;;;;2.79;1.00;;;;;;;;;;352607;151;864803;-56
2021/12/20 02:10:58;;;;;;;2.51;1.16;;;;;;;;;;352896;152;857348;-57
2021/12/20 02:12:00;;;;;;;3.60;1.40;;;;;;;;;;349705;151;865477;-57
2021/12/20 02:13:01;;;;;;;1.47;0.99;;;;;;;;;;352912;152;865465;-57
2021/12/20 02:14:03;;;;;;;1.67;0.96;;;;;;;;;;351698;152;865604;-57
2021/12/20 02:15:05;;;;;;;1.60;0.81;;;;;;;;;;340841;154;857891;-59
2021/12/20 02:16:07;;;;;;;3.79;1.59;;;;;;;;;;346857;153;857348;-57
2021/12/20 02:17:09;;;;;;;1.57;1.02;;;;;;;;;;347113;152;865169;-57
2021/12/20 02:18:11;;;;;;;2.06;1.37;;;;;;;;;;342035;157;865039;-57
2021/12/20 02:19:13;;;;;;;1.94;1.16;;;;;;;;;;345467;153;860065;-57
2021/12/20 02:20:29;;;;;;;2.80;1.13;;;;;;;;;;347215;152;857324;-57
2021/12/20 02:21:31;;;;;;;3.27;1.39;;;;;;;;;;343054;154;858704;-57
2021/12/20 02:22:32;;;;;;;3.07;1.29;;;;;;;;;;342211;154;858905;-57
2021/12/20 02:23:34;;;;;;;2.73;1.32;;;;;;;;;;342255;155;857323;-56
2021/12/20 02:24:35;;;;;;;1.73;1.11;;;;;;;;;;348955;152;857500;-56
2021/12/20 02:25:37;;;;;;;3.60;1.41;;;;;;;;;;347264;153;861312;-57
2021/12/20 02:26:39;;;;;;;2.64;1.28;;;;;;;;;;352890;151;863508;-56
2021/12/20 02:27:40;;;;;;;2.21;1.21;;;;;;;;;;350026;151;857551;-56
2021/12/20 02:28:45;;;;;;;1.14;0.86;;;;;;;;;;352201;153;863381;-56
2021/12/20 02:30:01;;;;;;;6.10;2.79;;;;;;;;;;352082;151;857261;-57
2021/12/20 02:38:16;;;;;;;1.61;0.97;;;;;;;;;;354586;150;857214;-56
2021/12/20 02:39:18;;;;;;;2.16;1.04;;;;;;;;;;349214;152;857823;-56
2021/12/20 02:40:21;;;;;;;1.87;1.05;;;;;;;;;;349751;151;864965;-58
2021/12/20 02:41:27;;;;;;;1.20;0.88;;;;;;;;;;350403;151;859894;-56
2021/12/20 02:42:33;;;;;;;2.36;1.00;;;;;;;;;;350507;152;857889;-57
2021/12/20 02:43:35;;;;;;;2.08;1.06;;;;;;;;;;343094;155;863703;-56
2021/12/20 02:44:35;;;;;;;1.70;0.84;;;;;;;;;;344432;153;860003;-55
2021/12/20 02:45:38;;;;;;;1.61;1.03;;;;;;;;;;350690;153;857491;-56
2021/12/20 02:47:45;;;;;;;1.33;0.87;;;;;;;;;;351320;151;859066;-55
2021/12/20 02:48:47;;;;;;;3.47;1.16;;;;;;;;;;350231;151;865479;-57
2021/12/20 02:49:48;;;;;;;5.84;2.60;;;;;;;;;;348467;153;859055;-56
2021/12/20 02:50:53;;;;;;;2.61;1.35;;;;;;;;;;349094;153;864681;-56
2021/12/20 02:52:03;;;;;;;3.12;1.15;;;;;;;;;;351003;152;860019;-56
2021/12/20 02:53:04;;;;;;;2.66;1.48;;;;;;;;;;349121;152;857716;-58
2021/12/20 02:54:06;;;;;;;4.14;1.72;;;;;;;;;;349543;152;857187;-58
2021/12/20 02:55:08;;;;;;;10.15;3.80;;;;;;;;;;352347;151;865554;-57
2021/12/20 02:56:10;;;;;;;2.30;1.19;;;;;;;;;;350074;152;858961;-58
2021/12/20 02:57:11;;;;;;;2.45;1.74;;;;;;;;;;347578;152;857196;-56
2021/12/20 02:58:13;;;;;;;1.90;1.19;;;;;;;;;;350617;152;861324;-56
2021/12/20 02:59:15;;;;;;;3.17;1.72;;;;;;;;;;351826;151;857430;-56
2021/12/20 03:00:17;;;;;;;1.92;1.17;;;;;;;;;;352203;152;866229;-56
2021/12/20 03:01:19;;;;;;;1.83;1.15;;;;;;;;;;348254;151;857246;-56
2021/12/20 03:02:22;;;;;;;1.34;0.96;;;;;;;;;;350296;151;857528;-56
2021/12/20 03:03:24;;;;;;;2.25;0.92;;;;;;;;;;350067;152;866563;-57
2021/12/20 03:04:26;;;;;;;1.49;0.91;;;;;;;;;;346491;154;858995;-57
2021/12/20 03:05:27;;;;;;;0.89;0.67;;;;;;;;;;349703;151;860065;-57
2021/12/20 03:06:40;;;;;;;1.71;0.91;;;;;;;;;;353823;149;864874;-57
2021/12/20 03:07:48;;;;;;;4.15;1.17;;;;;;;;;;355545;151;861344;-57
2021/12/20 03:08:48;;;;;;;2.09;1.20;;;;;;;;;;354479;150;857249;-57
2021/12/20 03:09:54;;;;;;;2.14;1.08;;;;;;;;;;355885;149;857092;-57
2021/12/20 03:10:55;;;;;;;2.14;1.49;;;;;;;;;;347326;153;856584;-57
2021/12/20 03:11:59;;;;;;;1.24;1.01;;;;;;;;;;348062;152;859546;-56
2021/12/20 03:13:00;;;;;;;3.66;1.19;;;;;;;;;;350077;152;857211;-57
2021/12/20 03:14:12;;;;;;;1.74;0.83;;;;;;;;;;346527;154;859800;-57
2021/12/20 03:15:18;;;;;;;1.52;0.99;;;;;;;;;;349338;151;865575;-56
2021/12/20 03:16:12;;;;;;;3.80;2.02;;;;;;;;;;348112;152;856314;-57
2021/12/20 03:17:14;;;;;;;1.45;1.11;;;;;;;;;;353985;150;860274;-58
2021/12/20 03:18:16;;;;;;;3.61;1.19;;;;;;;;;;354291;151;865088;-56
2021/12/20 03:19:17;;;;;;;1.14;1.04;;;;;;;;;;354802;151;857436;-56
2021/12/20 03:20:20;;;;;;;1.92;0.93;;;;;;;;;;349938;152;859590;-56
2021/12/20 03:21:22;;;;;;;1.26;0.79;;;;;;;;;;353935;151;867186;-56
2021/12/20 03:22:23;;;;;;;1.86;1.07;;;;;;;;;;354674;151;859004;-56
2021/12/20 03:23:25;;;;;;;1.06;0.89;;;;;;;;;;347479;153;863759;-57
2021/12/20 03:24:26;;;;;;;2.65;1.26;;;;;;;;;;350015;152;856418;-57
2021/12/20 03:25:28;;;;;;;2.18;0.93;;;;;;;;;;351715;151;856094;-56
2021/12/20 03:26:30;;;;;;;2.29;1.19;;;;;;;;;;353408;151;856073;-57
2021/12/20 03:27:31;;;;;;;0.94;0.84;;;;;;;;;;356172;150;856252;-56
2021/12/20 03:28:33;;;;;;;0.99;0.84;;;;;;;;;;354457;151;861869;-56
2021/12/20 03:29:34;;;;;;;1.67;0.84;;;;;;;;;;353484;151;863728;-57
2021/12/20 03:32:36;;;;;;;1.61;1.09;;;;;;;0.88;74.69;98170.04;373820;142;870687;-58
2021/12/20 03:33:37;;;;;;;1.38;0.91;;;;;;;0.62;75.03;98177.63;366158;144;858175;-54
2021/12/20 03:34:39;;;;;;;1.69;0.91;;;;;;;0.73;74.92;98186.16;371291;144;857975;-56
2021/12/20 03:35:41;;;;;;;0.93;0.66;;;;;;;0.82;74.96;98173.44;366215;144;868212;-56
2021/12/20 03:36:43;;;;;;;1.26;0.67;;;;;;;0.87;74.32;98176.85;365917;144;865940;-56
2021/12/20 03:37:44;;;;;;;1.18;0.79;;;;;;;0.84;73.91;98183.62;366890;144;858822;-57
2021/12/20 03:38:46;;;;;;;0.88;0.71;;;;;;;0.86;74.00;98187.89;367057;144;866333;-58
2021/12/20 03:39:48;;;;;;;2.46;0.80;;;;;;;0.98;74.20;98178.57;368447;144;857145;-56
2021/12/20 03:40:50;;;;;;;5.06;1.26;;;;;;;1.13;73.97;98187.96;367012;144;864876;-56
2021/12/20 03:41:52;;;;;;;2.05;1.04;;;;;;;1.15;73.13;98183.72;368454;144;864365;-57
2021/12/20 03:42:53;;;;;;;1.39;0.51;;;;;;;1.21;73.97;98190.50;366103;144;864926;-56
2021/12/20 03:43:55;;;;;;;2.15;0.89;;;;;;;1.35;73.84;98178.62;367657;144;857276;-56
2021/12/20 03:44:57;;;;;;;1.71;0.81;;;;;;;1.53;73.62;98176.92;368319;144;856733;-56
2021/12/20 03:45:59;;;;;;;1.70;0.86;;;;;;;1.69;73.49;98175.23;367964;144;864909;-56
2021/12/20 03:47:00;;;;;;;3.29;0.89;;;;;;;1.86;72.92;98175.22;366633;144;865247;-57
2021/12/20 03:48:02;;;;;;;2.78;0.63;;;;;;;2.01;71.88;98180.30;368702;144;860095;-57
2021/12/20 03:49:05;;;;;;;1.28;0.75;;;;;;;2.03;70.81;98182.83;366974;144;865826;-56
2021/12/20 03:50:08;;;;;;;1.35;0.61;;;;;;;1.98;70.44;98181.99;366041;144;857235;-57
2021/12/20 03:51:10;;;;;;;1.49;0.79;;;;;;;1.98;70.32;98180.30;363922;147;865085;-57
2021/12/20 03:52:12;;;;;;;1.16;0.58;;;;;;;1.88;70.42;98179.45;362598;146;857717;-58
2021/12/20 03:53:13;;;;;;;0.87;0.61;;;;;;;2.03;71.30;98186.25;364833;147;864761;-57
2021/12/20 03:54:15;;;;;;;0.86;0.53;;;;;;;2.06;70.49;98180.27;366070;147;857123;-58
2021/12/20 03:55:17;;;;;;;0.88;0.51;;;;;;;1.86;70.59;98181.16;364389;146;865234;-57
2021/12/20 03:56:19;;;;;;;1.46;0.59;;;;;;;1.89;70.82;98183.70;364516;145;864982;-57
2021/12/20 03:57:21;;;;;;;1.25;0.71;;;;;;;1.96;71.20;98182.02;367789;145;859014;-57
2021/12/20 03:58:22;;;;;;;0.86;0.56;;;;;;;2.08;71.33;98188.78;364410;145;857206;-56
2021/12/20 03:59:24;;;;;;;1.34;0.67;;;;;;;;;;364600;146;865312;-57
2021/12/20 04:00:26;;;;;;;1.18;0.62;;;;;;;;;;363791;146;858102;-57
2021/12/20 04:01:28;;;;;;;1.29;0.71;;;;;;;;;;363938;145;857701;-57
2021/12/20 04:02:38;;;;;;;1.51;0.73;;;;;;;;;;363333;146;865211;-56
2021/12/20 04:03:35;;;;;;;2.26;0.70;;;;;;;;;;362893;146;864745;-58
2021/12/20 04:04:36;;;;;;;1.75;0.76;;;;;;;;;;364451;147;857835;-57
2021/12/20 04:05:39;;;;;;;0.93;0.61;;;;;;;;;;364415;147;865050;-57
2021/12/20 04:06:40;;;;;;;2.41;0.93;;;;;;;;;;363378;146;859234;-57
2021/12/20 04:07:42;;;;;;;1.31;0.94;;;;;;;;;;364304;147;856319;-58
2021/12/20 04:08:43;;;;;;;1.04;0.70;;;;;;;;;;363585;147;860829;-58
2021/12/20 04:09:45;;;;;;;1.51;0.92;;;;;;;;;;363336;146;858538;-57
2021/12/20 04:10:47;;;;;;;1.07;0.70;;;;;;;;;;365310;147;859224;-57
2021/12/20 04:11:48;;;;;;;3.46;0.74;;;;;;;;;;362216;147;864759;-58
2021/12/20 04:12:50;;;;;;;1.92;0.81;;;;;;;;;;364521;146;865371;-58
2021/12/20 04:13:51;;;;;;;3.33;1.53;;;;;;;;;;364605;146;864943;-58
2021/12/20 04:14:53;;;;;;;4.76;1.46;;;;;;;;;;365874;146;863429;-58
2021/12/20 04:15:54;;;;;;;1.99;1.20;;;;;;;;;;365741;146;866199;-57
2021/12/20 04:16:56;;;;;;;4.18;1.99;;;;;;;;;;361738;146;858992;-57
2021/12/20 04:17:58;;;;;;;2.12;1.26;;;;;;;;;;364670;146;865029;-56
2021/12/20 04:18:59;;;;;;;4.59;2.36;;;;;;;;;;362432;147;864499;-56
2021/12/20 04:20:01;;;;;;;4.14;1.19;;;;;;;;;;365365;146;857183;-58
2021/12/20 04:21:03;;;;;;;1.23;0.91;;;;;;;;;;362285;146;858663;-58
2021/12/20 04:22:04;;;;;;;3.11;1.42;;;;;;;;;;365458;147;860073;-58
2021/12/20 04:23:06;;;;;;;4.80;2.10;;;;;;;;;;364720;146;857369;-58
2021/12/20 04:24:07;;;;;;;1.58;1.01;;;;;;;;;;364227;146;859285;-58
2021/12/20 04:25:09;;;;;;;3.05;1.80;;;;;;;;;;364699;146;857448;-58
2021/12/20 04:26:11;;;;;;;4.53;2.52;;;;;;;;;;365069;147;865529;-58
2021/12/20 04:27:12;;;;;;;5.09;2.44;;;;;;;;;;363191;146;859126;-59
2021/12/20 04:28:14;;;;;;;8.14;3.21;;;;;;;;;;365139;146;865095;-56
2021/12/20 04:29:16;;;;;;;4.21;2.19;;;;;;;;;;364710;147;866483;-57
2021/12/20 04:30:18;;;;;;;2.60;1.41;;;;;;;;;;363727;146;859228;-57
2021/12/20 04:31:19;;;;;;;2.97;1.61;;;;;;;;;;362354;146;857175;-57
2021/12/20 04:32:21;;;;;;;3.00;1.38;;;;;;;;;;364973;146;857288;-57
2021/12/20 04:33:22;;;;;;;1.10;0.91;;;;;;;;;;360839;147;866173;-56
2021/12/20 04:34:24;;;;;;;2.01;0.87;;;;;;;;;;360633;147;858987;-57
2021/12/20 04:35:25;;;;;;;1.07;0.86;;;;;;;;;;363044;146;864926;-56
2021/12/20 04:36:29;;;;;;;2.21;0.96;;;;;;;;;;362136;147;857265;-57
2021/12/20 04:37:30;;;;;;;2.59;1.00;;;;;;;;;;365862;147;864946;-57
2021/12/20 04:38:33;;;;;;;1.66;0.79;;;;;;;;;;364387;146;857356;-58
2021/12/20 04:39:35;;;;;;;1.67;0.98;;;;;;;;;;361274;146;866593;-56
2021/12/20 04:40:37;;;;;;;3.23;1.42;;;;;;;;;;360092;147;857296;-57
2021/12/20 04:41:39;;;;;;;3.58;1.52;;;;;;;;;;361612;147;864826;-56
2021/12/20 04:42:40;;;;;;;3.40;1.30;;;;;;;;;;363056;146;857307;-58
2021/12/20 04:43:42;;;;;;;2.06;1.50;;;;;;;;;;363447;147;859454;-61
2021/12/20 04:44:44;;;;;;;2.37;1.04;;;;;;;;;;365824;147;865881;-55
2021/12/20 04:45:45;;;;;;;2.99;1.18;;;;;;;;;;363014;146;859104;-59
2021/12/20 04:46:47;;;;;;;3.96;2.22;;;;;;;;;;362145;146;857220;-59
2021/12/20 04:47:48;;;;;;;5.72;1.86;;;;;;;;;;362005;146;860004;-56
2021/12/20 04:48:50;;;;;;;2.89;1.48;;;;;;;;;;362271;147;856438;-59
2021/12/20 04:49:51;;;;;;;1.72;1.26;;;;;;;;;;364733;146;857187;-58
2021/12/20 04:50:53;;;;;;;4.36;1.71;;;;;;;;;;361622;147;864741;-58
2021/12/20 04:51:55;;;;;;;1.83;1.05;;;;;;;;;;362481;147;858514;-59
2021/12/20 04:52:57;;;;;;;1.17;0.93;;;;;;;;;;364315;146;865638;-58
2021/12/20 04:53:59;;;;;;;1.45;0.81;;;;;;;;;;364828;146;864752;-57
2021/12/20 04:55:01;;;;;;;1.76;1.05;;;;;;;;;;364232;147;857897;-56
2021/12/20 04:56:02;;;;;;;1.64;0.94;;;;;;;;;;364862;147;864361;-57
2021/12/20 04:57:04;;;;;;;2.35;1.02;;;;;;;;;;363370;146;857775;-59
2021/12/20 04:58:05;;;;;;;2.44;1.00;;;;;;;;;;364383;147;863783;-58
2021/12/20 04:59:07;;;;;;;1.94;0.99;;;;;;;;;;363091;147;864792;-60
2021/12/20 05:00:11;;;;;;;2.43;1.07;;;;;;;;;;365168;146;858998;-57
2021/12/20 05:01:12;;;;;;;1.44;0.84;;;;;;;;;;363454;146;858696;-59
2021/12/20 05:02:14;;;;;;;1.54;1.19;;;;;;;;;;363279;147;859023;-57
2021/12/20 05:03:15;;;;;;;3.71;1.54;;;;;;;;;;363786;147;864903;-60
2021/12/20 05:04:17;;;;;;;6.59;2.76;;;;;;;;;;364560;146;862956;-60
2021/12/20 05:05:19;;;;;;;3.04;1.51;;;;;;;;;;364332;146;857458;-57
2021/12/20 05:06:22;;;;;;;4.89;2.27;;;;;;;;;;362607;147;865101;-57
2021/12/20 05:07:26;;;;;;;8.65;3.98;;;;;;;;;;364155;146;866392;-57
2021/12/20 05:08:34;;;;;;;8.52;4.10;;;;;;;;;;361228;146;863612;-57
2021/12/20 05:09:37;;;;;;;8.60;3.73;;;;;;;;;;363314;146;856131;-57
2021/12/20 05:10:37;;;;;;;2.59;1.75;;;;;;;;;;361426;147;856317;-58
2021/12/20 05:11:46;;;;;;;2.68;1.48;;;;;;;;;;363436;146;856695;-57
2021/12/20 05:12:41;;;;;;;2.85;2.06;;;;;;;;;;362714;147;856197;-57
2021/12/20 05:13:43;;;;;;;4.78;2.50;;;;;;;;;;362848;146;857126;-56
2021/12/20 05:14:44;;;;;;;3.75;2.21;;;;;;;;;;363311;146;857986;-57
2021/12/20 05:15:46;;;;;;;2.69;1.64;;;;;;;;;;360495;147;856144;-57
2021/12/20 05:16:48;;;;;;;5.39;1.29;;;;;;;;;;364646;147;856592;-56
2021/12/20 05:17:49;;;;;;;1.67;1.27;;;;;;;;;;362077;147;856521;-57
2021/12/20 05:18:51;;;;;;;2.24;0.84;;;;;;;;;;364521;146;856121;-57
2021/12/20 05:19:52;;;;;;;1.57;0.85;;;;;;;;;;365339;147;856191;-57
2021/12/20 05:20:54;;;;;;;1.88;1.26;;;;;;;;;;360410;146;857344;-57
2021/12/20 05:21:57;;;;;;;2.91;1.18;;;;;;;;;;363981;146;863809;-58
2021/12/20 05:22:59;;;;;;;3.11;0.99;;;;;;;;;;364353;146;856485;-58
2021/12/20 05:24:00;;;;;;;2.14;1.15;;;;;;;;;;363738;147;864232;-58
2021/12/20 05:25:02;;;;;;;2.14;1.11;;;;;;;;;;364350;147;856260;-58
2021/12/20 05:26:04;;;;;;;2.46;0.96;;;;;;;;;;364772;146;863772;-58
2021/12/20 05:27:05;;;;;;;1.89;1.11;;;;;;;;;;365316;146;856153;-58
2021/12/20 05:28:08;;;;;;;2.16;1.22;;;;;;;;;;365027;147;856181;-58
2021/12/20 05:29:10;;;;;;;3.19;1.08;;;;;;;;;;364152;147;859447;-58
2021/12/20 05:30:13;;;;;;;1.36;1.14;;;;;;;;;;365089;146;856070;-58
2021/12/20 05:31:14;;;;;;;1.04;0.87;;;;;;;;;;363277;147;855899;-57
2021/12/20 05:32:16;;;;;;;1.88;1.09;;;;;;;;;;363366;147;855952;-58
2021/12/20 05:33:18;;;;;;;1.29;0.93;;;;;;;;;;362028;146;856533;-59
2021/12/20 05:34:20;;;;;;;2.84;1.96;;;;;;;;;;360395;146;856545;-59
2021/12/20 05:35:21;;;;;;;3.38;1.59;;;;;;;;;;360430;148;856545;-59
2021/12/20 05:36:23;;;;;;;1.70;1.10;;;;;;;;;;358963;147;856904;-60
2021/12/20 05:37:25;;;;;;;1.55;0.99;;;;;;;;;;362404;145;856521;-60
2021/12/20 05:38:26;;;;;;;1.54;1.24;;;;;;;;;;361505;147;858779;-59
2021/12/20 05:39:28;;;;;;;3.09;1.13;;;;;;;;;;359932;147;863934;-59
2021/12/20 05:40:30;;;;;;;2.26;1.74;;;;;;;;;;358968;145;856322;-59
2021/12/20 05:53:03;;;;;;;1.59;1.08;;;;;;;1.11;74.23;98259.31;371641;141;876903;-62
2021/12/20 05:54:05;;;;;;;1.35;0.96;;;;;;;0.99;73.94;98269.47;361851;145;856005;-62
2021/12/20 05:55:07;;;;;;;1.36;0.86;;;;;;;1.01;73.81;98270.33;361981;145;856139;-62
2021/12/20 05:56:09;;;;;;;1.63;1.04;;;;;;;0.97;73.56;98273.71;362847;144;863566;-63
2021/12/20 05:57:11;;;;;;;0.84;0.80;;;;;;;0.95;73.75;98273.69;362032;145;863780;-62
2021/12/20 05:58:13;;;;;;;1.11;0.79;;;;;;;1.00;73.46;98274.56;363162;145;863677;-61
2021/12/20 05:59:14;;;;;;;1.26;0.90;;;;;;;1.10;73.63;98285.66;362892;145;856058;-61
2021/12/20 06:00:18;;;;;;;2.34;0.84;;;;;;;1.21;73.30;98278.05;361521;144;863710;-61
2021/12/20 06:01:20;;;;;;;1.04;0.81;;;;;;;;;;363777;144;856072;-61
2021/12/20 06:02:22;;;;;;;2.08;0.81;;;;;;;;;;360413;145;863781;-61
2021/12/20 06:03:23;;;;;;;2.28;0.88;;;;;;;;;;362188;144;862014;-61
2021/12/20 06:04:25;;;;;;;0.69;0.51;;;;;;;;;;363017;146;856226;-61
2021/12/20 06:05:27;;;;;;;2.36;1.04;;;;;;;;;;362892;145;856200;-61
2021/12/20 06:06:30;;;;;;;1.31;0.94;;;;;;;;;;363135;145;856421;-61
2021/12/20 06:07:32;;;;;;;1.28;0.96;;;;;;;;;;363762;145;857390;-62
2021/12/20 06:08:33;;;;;;;3.15;1.02;;;;;;;;;;363577;147;857150;-62
2021/12/20 06:09:35;;;;;;;2.12;1.41;;;;;;;;;;363280;145;863889;-61
2021/12/20 06:10:37;;;;;;;2.48;0.99;;;;;;;;;;362790;145;856231;-61
2021/12/20 06:11:38;;;;;;;2.21;1.65;;;;;;;;;;360179;149;863939;-61
2021/12/20 06:12:40;;;;;;;2.59;1.71;;;;;;;;;;360286;146;856234;-61
2021/12/20 06:13:41;;;;;;;3.03;1.46;;;;;;;;;;361941;145;856368;-61
2021/12/20 06:14:43;;;;;;;1.50;1.34;;;;;;;;;;360418;145;857000;-61
2021/12/20 06:15:44;;;;;;;0.80;0.79;;;;;;;;;;360566;148;856117;-62
2021/12/20 06:16:46;;;;;;;1.61;1.04;;;;;;;;;;361601;146;856903;-61
2021/12/20 06:17:48;;;;;;;2.44;1.09;;;;;;;;;;361084;145;863656;-61
2021/12/20 06:18:51;;;;;;;1.59;1.12;;;;;;;;;;361070;146;856648;-61
2021/12/20 06:19:53;;;;;;;2.15;1.05;;;;;;;;;;360350;146;856194;-61
2021/12/20 06:20:54;;;;;;;1.56;0.96;;;;;;;;;;360547;145;856148;-61
2021/12/20 06:21:56;;;;;;;1.49;1.09;;;;;;;;;;361312;145;863688;-61
2021/12/20 06:22:57;;;;;;;1.79;1.02;;;;;;;;;;360420;149;864074;-61
2021/12/20 06:23:59;;;;;;;1.31;0.90;;;;;;;;;;361091;146;863871;-61
2021/12/20 06:25:00;;;;;;;1.58;1.09;;;;;;;;;;360339;147;856563;-61